Time;durP1;ratioP1;P1;durP2;ratioP2;P2;SDS_P1;SDS_P2;PMS_P1;PMS_P2;Temp;Humidity;BMP_temperature;BMP_pressure;BME280_temperature;BME280_humidity;BME280_pressure;Samples;Min_cycle;Max_cycle;Signal;HPM_P1;HPM_P2
2021/10/31 00:01:10;;;;;;;2.93;2.20;;;14.80;99.90;;;;;;5034681;28;20489;-55
2021/10/31 00:03:36;;;;;;;2.47;2.27;;;14.70;99.90;;;;;;5034624;28;20458;-52
2021/10/31 00:06:01;;;;;;;3.00;2.53;;;14.80;99.90;;;;;;5034753;28;20460;-53
2021/10/31 00:08:27;;;;;;;3.20;2.30;;;14.70;99.90;;;;;;5034284;28;20460;-57
2021/10/31 00:10:53;;;;;;;3.30;2.57;;;14.50;99.90;;;;;;5034147;28;20249;-57
2021/10/31 00:13:18;;;;;;;2.57;2.37;;;14.50;99.90;;;;;;5034633;28;20252;-56
2021/10/31 00:15:44;;;;;;;2.50;2.30;;;14.30;99.90;;;;;;5034601;28;20554;-55
2021/10/31 00:18:09;;;;;;;3.10;2.67;;;14.40;99.90;;;;;;5034396;28;20177;-57
2021/10/31 00:20:35;;;;;;;2.67;2.40;;;14.40;99.90;;;;;;5034704;28;20512;-53
2021/10/31 00:23:01;;;;;;;2.73;2.50;;;14.30;99.90;;;;;;5034260;28;20171;-57
2021/10/31 00:25:26;;;;;;;4.33;3.10;;;14.40;99.90;;;;;;5033889;28;20540;-55
2021/10/31 00:27:52;;;;;;;2.40;2.20;;;14.40;99.90;;;;;;5034383;28;20179;-56
2021/10/31 00:30:18;;;;;;;2.70;2.20;;;14.50;99.90;;;;;;5034177;28;20176;-56
2021/10/31 00:32:43;;;;;;;2.50;2.33;;;14.50;99.90;;;;;;5027501;28;20184;-54
2021/10/31 00:35:09;;;;;;;1.87;1.77;;;14.50;99.90;;;;;;5029189;28;20198;-55
2021/10/31 00:37:35;;;;;;;1.90;1.80;;;14.40;99.90;;;;;;5034118;28;20254;-56
2021/10/31 00:40:00;;;;;;;2.53;2.30;;;14.60;99.90;;;;;;5034237;28;20170;-57
2021/10/31 00:42:26;;;;;;;2.30;2.10;;;14.60;99.90;;;;;;5033436;28;20194;-57
2021/10/31 00:44:52;;;;;;;1.87;1.77;;;14.60;99.90;;;;;;5068443;22;20820;-58
2021/10/31 00:47:17;;;;;;;1.97;1.80;;;14.60;99.90;;;;;;5041489;28;20596;-56
2021/10/31 00:49:43;;;;;;;2.47;2.27;;;14.50;99.90;;;;;;5044749;28;20258;-53
2021/10/31 00:52:10;;;;;;;2.40;2.20;;;14.40;99.90;;;;;;5053297;28;20176;-55
2021/10/31 00:54:37;;;;;;;1.93;1.73;;;14.40;99.90;;;;;;5053821;28;20193;-55
2021/10/31 00:57:04;;;;;;;2.23;2.03;;;14.40;99.90;;;;;;5054029;28;20950;-54
2021/10/31 00:59:30;;;;;;;2.10;1.80;;;14.30;99.90;;;;;;5053499;28;20498;-56
2021/10/31 01:01:57;;;;;;;2.17;1.97;;;14.30;99.90;;;;;;5053632;28;20543;-52
2021/10/31 01:04:25;;;;;;;2.23;1.93;;;14.20;99.90;;;;;;5053421;28;20478;-53
2021/10/31 01:07:01;;;;;;;2.23;2.03;;;14.20;99.90;;;;;;5053379;28;20820;-52
2021/10/31 01:10:01;;;;;;;2.30;2.10;;;14.20;99.90;;;;;;5054074;28;20406;-51
2021/10/31 01:12:53;;;;;;;3.57;3.27;;;14.20;99.90;;;;;;5053861;28;20517;-52
2021/10/31 01:15:47;;;;;;;3.80;3.50;;;14.20;99.90;;;;;;5051765;28;20468;-54
2021/10/31 01:18:12;;;;;;;3.47;3.17;;;14.20;99.90;;;;;;5052564;28;20418;-51
2021/10/31 01:21:08;;;;;;;3.43;3.20;;;14.10;99.90;;;;;;5053218;28;20946;-52
2021/10/31 01:23:59;;;;;;;4.73;2.90;;;14.00;99.90;;;;;;5053334;28;20644;-52
2021/10/31 01:26:49;;;;;;;2.97;2.77;;;14.00;99.90;;;;;;5053455;28;20591;-53
2021/10/31 01:29:44;;;;;;;4.30;2.70;;;13.80;99.90;;;;;;5052971;28;20475;-58
2021/10/31 01:32:31;;;;;;;2.37;2.17;;;13.70;99.90;;;;;;5052969;28;20414;-56
2021/10/31 01:35:09;;;;;;;2.10;1.90;;;13.60;99.90;;;;;;5053021;28;20963;-58
2021/10/31 01:38:02;;;;;;;2.10;1.90;;;13.60;99.90;;;;;;5053247;28;20568;-54
2021/10/31 01:40:54;;;;;;;2.50;2.30;;;13.60;99.90;;;;;;5052403;28;20418;-53
2021/10/31 01:43:37;;;;;;;2.53;2.33;;;13.60;99.90;;;;;;5052834;28;20397;-52
2021/10/31 01:46:23;;;;;;;2.37;2.20;;;13.50;99.90;;;;;;5052215;28;20535;-53
2021/10/31 01:49:27;;;;;;;3.60;3.10;;;13.60;99.90;;;;;;5053286;28;20901;-54
2021/10/31 01:51:59;;;;;;;3.20;2.57;;;13.60;99.90;;;;;;5053526;28;20740;-53
2021/10/31 01:54:37;;;;;;;2.70;2.50;;;13.60;99.90;;;;;;5052170;28;20748;-56
2021/10/31 01:57:07;;;;;;;3.00;2.70;;;13.60;99.90;;;;;;5053306;28;20409;-52
2021/10/31 01:59:41;;;;;;;2.70;2.50;;;13.60;99.90;;;;;;5052756;28;20425;-55
2021/10/31 02:02:09;;;;;;;2.67;2.40;;;13.60;99.90;;;;;;5051661;28;20437;-55
2021/10/31 02:04:37;;;;;;;2.13;1.97;;;13.70;99.90;;;;;;5055888;28;20449;-56
2021/10/31 02:07:05;;;;;;;3.10;2.20;;;13.70;99.90;;;;;;5056767;28;20424;-53
2021/10/31 02:09:32;;;;;;;2.07;1.90;;;13.70;99.90;;;;;;5057063;28;20405;-57
2021/10/31 02:12:01;;;;;;;3.60;3.30;;;13.70;99.90;;;;;;5056982;28;20409;-52
2021/10/31 02:14:27;;;;;;;3.10;2.83;;;13.70;99.90;;;;;;5056681;28;20962;-52
2021/10/31 02:16:55;;;;;;;2.57;2.37;;;13.70;99.90;;;;;;5056630;28;20397;-53
2021/10/31 02:19:24;;;;;;;3.10;2.80;;;13.60;99.90;;;;;;5057094;28;20407;-53
2021/10/31 02:22:00;;;;;;;4.20;2.57;;;13.40;99.90;;;;;;5056779;28;20452;-55
2021/10/31 02:24:26;;;;;;;2.77;2.57;;;13.40;99.90;;;;;;5056669;28;20516;-56
2021/10/31 02:26:52;;;;;;;2.13;1.93;;;13.40;99.90;;;;;;5057017;28;20870;-57
2021/10/31 02:29:18;;;;;;;2.77;2.50;;;13.30;99.90;;;;;;5054968;28;20416;-55
2021/10/31 02:31:44;;;;;;;3.30;2.80;;;13.30;99.90;;;;;;5056136;28;20171;-55
2021/10/31 02:34:10;;;;;;;2.80;2.60;;;13.10;99.90;;;;;;5056339;28;20426;-56
2021/10/31 02:36:37;;;;;;;2.90;2.60;;;13.20;99.90;;;;;;5056872;28;20401;-58
2021/10/31 02:39:06;;;;;;;2.37;2.17;;;13.20;99.90;;;;;;5058450;28;20431;-52
2021/10/31 02:41:34;;;;;;;2.57;1.97;;;13.20;99.90;;;;;;5060274;28;20475;-51
2021/10/31 02:44:00;;;;;;;2.73;2.50;;;13.30;99.90;;;;;;5058662;28;20406;-52
2021/10/31 02:46:31;;;;;;;3.13;2.40;;;13.20;99.90;;;;;;5058063;28;20415;-56
2021/10/31 02:48:57;;;;;;;2.50;2.30;;;13.20;99.90;;;;;;5060224;28;20506;-57
2021/10/31 02:51:43;;;;;;;3.17;2.73;;;13.20;99.90;;;;;;5059242;28;20409;-53
2021/10/31 02:54:35;;;;;;;2.27;2.07;;;13.10;99.90;;;;;;5060609;28;20421;-54
2021/10/31 02:57:19;;;;;;;2.63;2.43;;;13.10;99.90;;;;;;5059741;28;20409;-55
2021/10/31 02:59:54;;;;;;;2.50;2.30;;;13.10;99.90;;;;;;5056085;28;20408;-56
2021/10/31 03:02:20;;;;;;;2.50;2.30;;;13.10;99.90;;;;;;5055647;28;20436;-54
2021/10/31 03:04:47;;;;;;;2.67;2.47;;;13.10;99.90;;;;;;5055872;28;20457;-53
2021/10/31 03:07:15;;;;;;;2.50;2.30;;;13.10;99.90;;;;;;5055740;28;20989;-56
2021/10/31 03:09:40;;;;;;;3.80;2.50;;;13.20;99.90;;;;;;5055801;28;20413;-53
2021/10/31 03:12:08;;;;;;;4.67;3.83;;;13.20;99.90;;;;;;5055623;28;20414;-53
2021/10/31 03:14:35;;;;;;;4.63;3.13;;;13.10;99.90;;;;;;5055228;28;20193;-53
2021/10/31 03:17:01;;;;;;;3.70;3.30;;;13.00;99.90;;;;;;5055453;28;20397;-56
2021/10/31 03:19:27;;;;;;;3.30;3.00;;;12.90;99.90;;;;;;5055747;28;20432;-55
2021/10/31 03:21:52;;;;;;;3.50;3.20;;;12.90;99.90;;;;;;5055320;28;20239;-56
2021/10/31 03:24:18;;;;;;;3.03;2.73;;;12.90;99.90;;;;;;5055621;28;20196;-57
2021/10/31 03:26:44;;;;;;;6.17;2.60;;;12.90;99.90;;;;;;5056133;28;20170;-58
2021/10/31 03:29:10;;;;;;;2.53;2.33;;;12.80;99.90;;;;;;5055147;28;20455;-56
2021/10/31 03:31:35;;;;;;;5.73;3.67;;;12.80;99.90;;;;;;5054736;28;20171;-57
2021/10/31 03:34:01;;;;;;;4.40;3.03;;;12.70;99.90;;;;;;5055495;28;20188;-54
2021/10/31 03:36:27;;;;;;;4.13;3.73;;;12.60;99.90;;;;;;5055426;28;20175;-54
2021/10/31 03:38:52;;;;;;;4.40;4.00;;;12.50;99.90;;;;;;5054847;28;20186;-54
2021/10/31 03:41:18;;;;;;;4.30;3.90;;;12.40;99.90;;;;;;5053971;28;20273;-56
2021/10/31 03:43:44;;;;;;;4.10;3.63;;;12.40;99.90;;;;;;5055608;28;20202;-55
2021/10/31 03:46:10;;;;;;;5.17;4.67;;;12.40;99.90;;;;;;5054487;28;20540;-54
2021/10/31 03:48:35;;;;;;;3.33;3.03;;;12.30;99.90;;;;;;5054810;28;20420;-54
2021/10/31 03:51:01;;;;;;;4.03;3.23;;;12.20;99.90;;;;;;5054935;28;20162;-53
2021/10/31 03:53:27;;;;;;;5.23;2.40;;;12.10;99.90;;;;;;5054942;28;20220;-53
2021/10/31 03:55:52;;;;;;;3.90;3.00;;;12.00;99.90;;;;;;5054809;28;20190;-56
2021/10/31 03:58:18;;;;;;;2.90;2.70;;;12.00;99.90;;;;;;5054629;28;20583;-55
2021/10/31 04:00:44;;;;;;;2.80;2.60;;;12.00;99.90;;;;;;5054253;28;20173;-55
2021/10/31 04:03:11;;;;;;;4.20;2.30;;;12.00;99.90;;;;;;5054356;28;20537;-52
2021/10/31 04:05:37;;;;;;;3.60;3.30;;;12.00;99.90;;;;;;5054668;28;20193;-55
2021/10/31 04:08:03;;;;;;;3.70;3.40;;;11.90;99.90;;;;;;5054505;28;20415;-55
2021/10/31 04:10:32;;;;;;;4.53;4.10;;;11.80;99.90;;;;;;5054352;28;20414;-52
2021/10/31 04:12:57;;;;;;;2.97;2.70;;;11.90;99.90;;;;;;5054408;28;20404;-53
2021/10/31 04:15:24;;;;;;;3.73;3.43;;;11.90;99.90;;;;;;5054290;28;20425;-52
2021/10/31 04:17:50;;;;;;;3.30;2.60;;;11.90;99.90;;;;;;5054017;28;20201;-55
2021/10/31 04:20:16;;;;;;;2.73;2.40;;;12.00;99.90;;;;;;5053030;28;20846;-54
2021/10/31 04:22:42;;;;;;;2.30;2.10;;;12.00;99.90;;;;;;5054344;28;20195;-55
2021/10/31 04:25:08;;;;;;;2.40;2.03;;;12.10;99.90;;;;;;5054106;28;20421;-54
2021/10/31 04:27:35;;;;;;;4.87;2.57;;;12.10;99.90;;;;;;5054022;28;20870;-52
2021/10/31 04:30:00;;;;;;;3.63;2.60;;;12.10;99.90;;;;;;5054321;28;20403;-54
2021/10/31 04:32:26;;;;;;;5.90;4.43;;;12.00;99.90;;;;;;5053990;28;20410;-55
2021/10/31 04:34:51;;;;;;;4.90;3.40;;;11.90;99.90;;;;;;5054315;28;20194;-53
2021/10/31 04:37:17;;;;;;;3.87;3.57;;;12.00;99.90;;;;;;5054068;28;20224;-51
2021/10/31 04:39:44;;;;;;;5.10;4.57;;;12.00;99.90;;;;;;5054364;28;20262;-53
2021/10/31 04:42:10;;;;;;;5.20;4.10;;;12.00;99.90;;;;;;5054175;28;20206;-56
2021/10/31 04:44:37;;;;;;;4.30;3.90;;;12.00;99.90;;;;;;5053942;28;20441;-54
2021/10/31 04:47:04;;;;;;;3.57;2.97;;;12.00;99.90;;;;;;5053860;28;20415;-55
2021/10/31 04:49:30;;;;;;;8.07;3.53;;;11.90;99.90;;;;;;5053556;28;20965;-54
2021/10/31 04:51:56;;;;;;;4.67;3.43;;;11.90;99.90;;;;;;5054313;28;20412;-53
2021/10/31 04:54:22;;;;;;;6.40;5.80;;;11.90;99.90;;;;;;5053277;28;20438;-55
2021/10/31 04:56:48;;;;;;;9.07;4.20;;;11.90;99.90;;;;;;5053097;28;20463;-55
2021/10/31 04:59:14;;;;;;;5.67;5.03;;;11.80;99.90;;;;;;5053777;28;20838;-54
2021/10/31 05:01:40;;;;;;;3.73;3.43;;;11.90;99.90;;;;;;5053005;28;20536;-54
2021/10/31 05:04:06;;;;;;;3.93;3.53;;;11.90;99.90;;;;;;5053734;28;20513;-52
2021/10/31 05:06:31;;;;;;;3.33;3.10;;;12.00;99.90;;;;;;5053474;28;20256;-54
2021/10/31 05:08:58;;;;;;;3.13;2.77;;;12.00;99.90;;;;;;5053300;28;20579;-53
2021/10/31 05:11:24;;;;;;;3.60;3.30;;;11.90;99.90;;;;;;5053499;28;20201;-58
2021/10/31 05:13:49;;;;;;;4.93;3.27;;;11.90;99.90;;;;;;5053189;28;20406;-54
2021/10/31 05:16:15;;;;;;;2.93;2.43;;;12.00;99.90;;;;;;5053102;28;20484;-54
2021/10/31 05:18:41;;;;;;;3.20;2.90;;;12.00;99.90;;;;;;5052953;28;20244;-54
2021/10/31 05:21:07;;;;;;;3.53;2.70;;;12.00;99.90;;;;;;5053034;28;20218;-54
2021/10/31 05:23:33;;;;;;;2.40;2.20;;;12.10;99.90;;;;;;5053173;28;20175;-53
2021/10/31 05:26:00;;;;;;;3.50;3.00;;;12.20;99.90;;;;;;5053183;28;20526;-55
2021/10/31 05:28:26;;;;;;;4.50;3.07;;;12.20;99.90;;;;;;5053303;28;20401;-54
2021/10/31 05:30:55;;;;;;;3.70;2.97;;;12.10;99.90;;;;;;5053029;28;20171;-55
2021/10/31 05:33:22;;;;;;;4.40;3.57;;;12.00;99.90;;;;;;5052780;28;20168;-52
2021/10/31 05:35:51;;;;;;;4.37;3.97;;;12.00;99.90;;;;;;5052670;28;20458;-53
2021/10/31 05:38:19;;;;;;;5.70;5.20;;;11.90;99.90;;;;;;5052016;28;20493;-53
2021/10/31 05:40:45;;;;;;;5.83;5.33;;;11.90;99.90;;;;;;5053209;28;20405;-57
2021/10/31 05:43:11;;;;;;;4.90;4.30;;;11.90;99.90;;;;;;5053017;28;20401;-54
2021/10/31 05:45:37;;;;;;;3.93;3.63;;;11.90;99.90;;;;;;5053077;28;20851;-53
2021/10/31 05:48:02;;;;;;;11.80;7.50;;;11.90;99.90;;;;;;5052884;28;20181;-54
2021/10/31 05:50:28;;;;;;;6.23;5.73;;;11.80;99.90;;;;;;5052978;28;20167;-55
2021/10/31 05:52:54;;;;;;;4.30;3.80;;;11.90;99.90;;;;;;5052977;28;20166;-56
2021/10/31 05:55:19;;;;;;;5.50;5.10;;;11.90;99.90;;;;;;5052342;28;20191;-55
2021/10/31 05:57:46;;;;;;;6.00;5.50;;;11.80;99.90;;;;;;5053076;28;20175;-56
2021/10/31 06:00:13;;;;;;;5.67;3.70;;;11.80;99.90;;;;;;5052649;28;20175;-54
2021/10/31 06:02:39;;;;;;;4.60;4.20;;;11.90;99.90;;;;;;5051573;28;20538;-54
2021/10/31 06:05:06;;;;;;;3.60;3.30;;;11.90;99.90;;;;;;5053095;28;20470;-57
2021/10/31 06:07:32;;;;;;;4.40;3.97;;;12.00;99.90;;;;;;5054126;28;20830;-55
2021/10/31 06:09:58;;;;;;;6.80;5.00;;;11.90;99.90;;;;;;5053755;28;20925;-57
2021/10/31 06:12:24;;;;;;;5.30;4.60;;;11.70;99.90;;;;;;5054912;28;20405;-55
2021/10/31 06:14:50;;;;;;;5.60;4.50;;;11.70;99.90;;;;;;5052718;28;20193;-54
2021/10/31 06:17:16;;;;;;;3.80;3.50;;;11.80;99.90;;;;;;5052798;28;20489;-55
2021/10/31 06:19:42;;;;;;;4.07;3.47;;;11.90;99.90;;;;;;5053198;28;20440;-53
2021/10/31 06:22:08;;;;;;;4.40;4.00;;;12.00;99.90;;;;;;5053077;28;20529;-51
2021/10/31 06:24:34;;;;;;;4.13;3.83;;;12.00;99.90;;;;;;5052974;28;20461;-51
2021/10/31 06:27:00;;;;;;;4.33;3.93;;;12.00;99.90;;;;;;5052645;28;20178;-51
2021/10/31 06:29:26;;;;;;;3.90;3.60;;;12.00;99.90;;;;;;5052832;28;20468;-53
2021/10/31 06:31:51;;;;;;;4.27;3.87;;;12.00;99.90;;;;;;5052351;28;20224;-51
2021/10/31 06:34:18;;;;;;;4.17;3.77;;;12.10;99.90;;;;;;5051922;28;20210;-51
2021/10/31 06:36:45;;;;;;;13.20;3.40;;;12.10;99.90;;;;;;5052623;28;20542;-54
2021/10/31 06:39:11;;;;;;;3.67;3.37;;;12.20;99.90;;;;;;5052562;28;20409;-57
2021/10/31 06:41:37;;;;;;;4.57;4.27;;;12.30;99.90;;;;;;5051005;28;20813;-56
2021/10/31 06:44:03;;;;;;;4.80;4.40;;;12.20;99.90;;;;;;5052482;28;20405;-55
2021/10/31 06:46:29;;;;;;;4.63;4.23;;;12.20;99.90;;;;;;5052718;28;20681;-53
2021/10/31 06:48:55;;;;;;;4.50;4.10;;;12.30;99.90;;;;;;5052865;28;20496;-55
2021/10/31 06:51:21;;;;;;;5.60;4.77;;;12.30;99.90;;;;;;5056058;28;20172;-55
2021/10/31 06:53:48;;;;;;;4.70;4.30;;;12.30;99.90;;;;;;5057515;28;20627;-53
2021/10/31 06:56:14;;;;;;;4.70;4.30;;;12.30;99.90;;;;;;5055472;28;20403;-53
2021/10/31 06:58:40;;;;;;;4.90;4.50;;;12.30;99.90;;;;;;5056383;28;20416;-54
2021/10/31 07:01:06;;;;;;;5.87;5.37;;;12.30;99.90;;;;;;5055725;28;20843;-56
2021/10/31 07:03:31;;;;;;;4.13;3.73;;;12.40;99.90;;;;;;5056335;28;20197;-52
2021/10/31 07:05:59;;;;;;;4.30;3.87;;;12.40;99.90;;;;;;5054324;28;20194;-52
2021/10/31 07:08:24;;;;;;;3.90;3.50;;;12.50;99.90;;;;;;5055868;28;20203;-55
2021/10/31 07:10:50;;;;;;;5.27;3.50;;;12.50;99.90;;;;;;5055323;28;20418;-55
2021/10/31 07:13:16;;;;;;;3.00;2.80;;;12.60;99.90;;;;;;5055405;28;20172;-57
2021/10/31 07:15:41;;;;;;;3.40;3.10;;;12.70;99.90;;;;;;5055905;28;20220;-54
2021/10/31 07:18:07;;;;;;;5.17;3.53;;;12.70;99.90;;;;;;5055799;28;20174;-55
2021/10/31 07:20:33;;;;;;;4.53;3.20;;;12.70;99.90;;;;;;5055456;28;20232;-57
2021/10/31 07:22:59;;;;;;;3.70;3.40;;;12.80;99.90;;;;;;5055647;28;20218;-58
2021/10/31 07:25:27;;;;;;;4.40;3.40;;;12.80;99.90;;;;;;5055159;28;20876;-53
2021/10/31 07:27:54;;;;;;;3.37;3.07;;;12.90;99.90;;;;;;5055015;28;20255;-52
2021/10/31 07:30:21;;;;;;;4.03;3.13;;;13.00;99.90;;;;;;5055589;28;20464;-53
2021/10/31 07:33:01;;;;;;;3.53;3.30;;;13.10;99.90;;;;;;5054975;28;20504;-55
2021/10/31 07:35:28;;;;;;;4.80;4.40;;;13.10;99.90;;;;;;5055431;28;20436;-57
2021/10/31 07:37:54;;;;;;;4.60;4.03;;;13.20;99.90;;;;;;5055311;28;20500;-55
2021/10/31 07:40:22;;;;;;;3.97;3.67;;;13.20;99.90;;;;;;5055365;28;20421;-54
2021/10/31 07:42:48;;;;;;;5.03;4.33;;;13.30;99.90;;;;;;5054819;28;20449;-56
2021/10/31 07:45:14;;;;;;;4.23;3.83;;;13.40;99.90;;;;;;5054910;28;20446;-57
2021/10/31 07:47:40;;;;;;;5.33;4.90;;;13.50;99.90;;;;;;5055424;28;20526;-52
2021/10/31 07:50:07;;;;;;;5.23;4.03;;;13.50;99.90;;;;;;5055143;28;20173;-53
2021/10/31 07:52:33;;;;;;;6.17;4.37;;;13.70;99.90;;;;;;5054729;28;20451;-56
2021/10/31 07:55:00;;;;;;;3.90;3.20;;;13.70;99.90;;;;;;5055133;28;20517;-51
2021/10/31 07:57:28;;;;;;;3.90;2.97;;;13.80;99.90;;;;;;5054301;28;20917;-51
2021/10/31 07:59:54;;;;;;;3.97;3.63;;;13.90;99.90;;;;;;5055732;28;20410;-52
2021/10/31 08:02:20;;;;;;;4.60;4.20;;;14.00;99.90;;;;;;5053806;28;20452;-54
2021/10/31 08:04:45;;;;;;;4.43;4.03;;;14.00;99.90;;;;;;5054767;28;20254;-51
2021/10/31 08:07:13;;;;;;;5.37;3.80;;;14.00;99.90;;;;;;5054626;28;20649;-55
2021/10/31 08:09:39;;;;;;;8.83;8.03;;;13.90;99.90;;;;;;5054879;28;20781;-53
2021/10/31 08:12:05;;;;;;;8.90;8.00;;;13.80;99.90;;;;;;5054549;28;20420;-54
2021/10/31 08:14:30;;;;;;;9.07;8.17;;;13.60;99.90;;;;;;5054769;28;20437;-55
2021/10/31 08:16:56;;;;;;;11.43;9.80;;;13.50;99.90;;;;;;5054391;28;20476;-53
2021/10/31 08:19:24;;;;;;;9.70;8.70;;;13.60;99.90;;;;;;5054762;28;20245;-57
2021/10/31 08:21:51;;;;;;;12.43;11.17;;;13.90;99.90;;;;;;5054549;28;20286;-54
2021/10/31 08:24:17;;;;;;;12.40;11.20;;;13.90;99.90;;;;;;5054236;28;20465;-53
2021/10/31 08:26:42;;;;;;;10.17;9.27;;;14.00;99.90;;;;;;5054070;28;20448;-53
2021/10/31 08:29:10;;;;;;;10.43;9.43;;;14.10;99.90;;;;;;5054407;28;20174;-51
2021/10/31 08:31:38;;;;;;;11.57;10.40;;;14.20;99.90;;;;;;5054495;28;20181;-52
2021/10/31 08:34:04;;;;;;;12.80;11.50;;;14.20;99.90;;;;;;5054408;28;20519;-53
2021/10/31 08:36:30;;;;;;;12.00;10.90;;;13.90;99.90;;;;;;5053974;28;20457;-53
2021/10/31 08:38:57;;;;;;;11.10;10.00;;;13.80;99.90;;;;;;5054205;28;20182;-56
2021/10/31 08:41:24;;;;;;;13.57;12.00;;;14.10;99.90;;;;;;5053452;28;20490;-56
2021/10/31 08:43:59;;;;;;;12.80;11.53;;;14.10;99.90;;;;;;5054013;28;20457;-57
2021/10/31 08:46:29;;;;;;;8.23;7.50;;;14.20;99.90;;;;;;5054654;28;20903;-53
2021/10/31 08:48:55;;;;;;;6.70;6.00;;;14.20;99.90;;;;;;5054353;28;20764;-57
2021/10/31 08:51:24;;;;;;;5.30;4.80;;;14.40;99.90;;;;;;5054599;28;20415;-54
2021/10/31 08:53:50;;;;;;;5.00;4.60;;;14.30;99.90;;;;;;5054157;28;20414;-56
2021/10/31 08:56:16;;;;;;;4.73;4.33;;;14.30;99.90;;;;;;5053483;28;20507;-56
2021/10/31 08:58:43;;;;;;;4.90;4.50;;;14.30;99.90;;;;;;5053825;28;20897;-54
2021/10/31 09:01:10;;;;;;;5.23;4.83;;;14.40;99.90;;;;;;5053773;28;20196;-58
2021/10/31 09:03:36;;;;;;;5.03;4.63;;;14.40;99.90;;;;;;5053945;28;20411;-53
2021/10/31 09:06:01;;;;;;;5.27;4.80;;;14.40;99.90;;;;;;5054055;28;20431;-55
2021/10/31 09:08:27;;;;;;;6.10;5.50;;;14.40;99.90;;;;;;5053829;28;20252;-56
2021/10/31 09:10:53;;;;;;;5.50;5.10;;;14.40;99.90;;;;;;5052167;28;20231;-57
2021/10/31 09:13:21;;;;;;;5.47;5.00;;;14.60;99.90;;;;;;5053621;28;20204;-57
2021/10/31 09:15:47;;;;;;;5.50;5.10;;;14.60;99.90;;;;;;5054047;28;20422;-56
2021/10/31 09:18:12;;;;;;;5.43;4.93;;;14.60;99.90;;;;;;5053870;28;20489;-57
2021/10/31 09:20:39;;;;;;;5.80;5.30;;;14.80;99.90;;;;;;5054036;28;20249;-57
2021/10/31 09:23:06;;;;;;;4.80;4.37;;;14.80;99.90;;;;;;5053568;28;20209;-54
2021/10/31 09:25:32;;;;;;;4.50;4.20;;;14.80;99.90;;;;;;5051967;28;20955;-55
2021/10/31 09:28:01;;;;;;;4.93;4.40;;;14.90;99.90;;;;;;5052823;28;20414;-53
2021/10/31 09:30:28;;;;;;;5.07;4.63;;;15.10;99.90;;;;;;5053705;28;20472;-53
2021/10/31 09:32:54;;;;;;;5.00;4.40;;;15.00;99.90;;;;;;5053604;28;20537;-54
2021/10/31 09:35:27;;;;;;;5.07;4.20;;;15.10;99.90;;;;;;5051968;28;20544;-53
2021/10/31 09:38:01;;;;;;;5.23;4.80;;;15.30;99.90;;;;;;5052913;28;20964;-54
2021/10/31 09:40:27;;;;;;;4.20;3.90;;;15.40;99.90;;;;;;5053719;28;20921;-54
2021/10/31 09:42:55;;;;;;;4.53;4.10;;;15.50;99.90;;;;;;5051034;28;20832;-57
2021/10/31 09:45:22;;;;;;;6.00;4.20;;;15.70;99.90;;;;;;5052779;28;20460;-54
2021/10/31 09:47:56;;;;;;;4.20;3.80;;;15.80;99.90;;;;;;5053415;28;20418;-54
2021/10/31 09:50:23;;;;;;;4.00;3.70;;;15.90;99.90;;;;;;5053056;28;20892;-58
2021/10/31 09:52:49;;;;;;;3.43;3.13;;;16.10;99.90;;;;;;5053017;28;20412;-55
2021/10/31 09:55:15;;;;;;;4.10;3.50;;;16.20;99.90;;;;;;5052871;28;20895;-53
2021/10/31 09:57:40;;;;;;;4.00;3.70;;;16.30;99.90;;;;;;5052892;28;20177;-58
2021/10/31 10:00:06;;;;;;;3.23;2.93;;;16.40;99.90;;;;;;5051740;28;20212;-58
2021/10/31 10:05:26;;;;;;;2.90;2.57;;;16.60;99.90;;;;;;5052140;28;20900;-55
2021/10/31 10:08:10;;;;;;;2.77;2.57;;;16.90;99.90;;;;;;5053226;28;20411;-55
2021/10/31 10:10:44;;;;;;;2.67;2.47;;;17.10;99.90;;;;;;5053043;28;20405;-54
2021/10/31 10:13:26;;;;;;;2.90;2.70;;;17.20;99.90;;;;;;5052595;28;20394;-56
2021/10/31 10:16:22;;;;;;;1.97;1.77;;;17.40;99.90;;;;;;5053168;28;20417;-53
2021/10/31 10:18:49;;;;;;;2.30;2.10;;;17.50;99.90;;;;;;5052838;28;20393;-55
2021/10/31 10:21:41;;;;;;;2.07;1.83;;;17.60;99.90;;;;;;5052909;28;20448;-55
2021/10/31 10:24:10;;;;;;;3.60;2.73;;;17.50;99.90;;;;;;5053353;28;20452;-56
2021/10/31 10:26:39;;;;;;;3.57;2.40;;;17.50;99.90;;;;;;5056417;28;20538;-57
2021/10/31 10:29:15;;;;;;;6.90;3.13;;;17.50;99.90;;;;;;5056645;28;20779;-53
2021/10/31 10:31:43;;;;;;;2.60;2.40;;;17.60;99.90;;;;;;5056872;28;20396;-54
2021/10/31 10:34:10;;;;;;;2.20;2.03;;;17.90;99.90;;;;;;5056576;28;20486;-54
2021/10/31 10:36:41;;;;;;;3.03;2.73;;;18.00;99.90;;;;;;5056454;28;20470;-52
2021/10/31 10:39:09;;;;;;;2.30;2.10;;;18.00;99.90;;;;;;5056285;28;20812;-51
2021/10/31 10:41:42;;;;;;;2.40;2.20;;;18.10;99.90;;;;;;5056175;28;20448;-56
2021/10/31 10:44:25;;;;;;;2.77;2.30;;;18.20;99.90;;;;;;5056208;28;20441;-54
2021/10/31 10:47:21;;;;;;;2.40;2.03;;;18.70;99.90;;;;;;5056438;28;20389;-55
2021/10/31 10:49:49;;;;;;;2.70;2.40;;;21.10;99.90;;;;;;5056272;28;20406;-54
2021/10/31 10:52:40;;;;;;;2.70;2.50;;;23.80;99.90;;;;;;5056180;28;20409;-57
2021/10/31 10:55:23;;;;;;;3.70;3.30;;;24.30;98.30;;;;;;5056377;28;20428;-54
2021/10/31 10:57:53;;;;;;;2.80;2.40;;;25.90;96.20;;;;;;5055858;28;20397;-57
2021/10/31 11:00:26;;;;;;;3.10;2.60;;;26.10;94.10;;;;;;5055628;28;20471;-56
2021/10/31 11:03:05;;;;;;;2.87;2.67;;;26.50;93.90;;;;;;5055725;28;20437;-56
2021/10/31 11:05:37;;;;;;;2.80;2.60;;;27.00;92.10;;;;;;5056176;28;20428;-58
2021/10/31 11:08:10;;;;;;;3.17;2.90;;;27.70;91.10;;;;;;5056114;28;20400;-56
2021/10/31 11:10:36;;;;;;;2.97;2.73;;;27.90;90.50;;;;;;5054854;28;20390;-55
2021/10/31 11:13:06;;;;;;;5.00;2.80;;;27.00;90.50;;;;;;5055255;28;20508;-55
2021/10/31 11:15:34;;;;;;;2.70;2.50;;;27.40;90.00;;;;;;5056112;28;20198;-54
2021/10/31 11:18:02;;;;;;;5.07;2.10;;;28.40;86.60;;;;;;5055892;28;20397;-58
2021/10/31 11:20:34;;;;;;;5.03;2.57;;;27.40;84.90;;;;;;5055435;28;20405;-56
2021/10/31 11:23:03;;;;;;;2.23;2.03;;;27.10;81.10;;;;;;5055724;28;20969;-56
2021/10/31 11:25:30;;;;;;;2.50;2.30;;;26.70;82.00;;;;;;5055633;28;20490;-56
2021/10/31 11:27:59;;;;;;;2.57;1.80;;;26.80;82.20;;;;;;5053591;28;20405;-57
2021/10/31 11:30:26;;;;;;;2.13;1.90;;;27.10;82.30;;;;;;5055424;28;20409;-57
2021/10/31 11:32:53;;;;;;;2.83;2.37;;;27.60;81.60;;;;;;5055090;28;20409;-57
2021/10/31 11:35:22;;;;;;;2.20;2.00;;;28.30;79.50;;;;;;5055111;28;20996;-55
2021/10/31 11:38:10;;;;;;;2.87;2.67;;;28.20;74.40;;;;;;5055663;28;20485;-52
2021/10/31 11:40:48;;;;;;;2.50;2.30;;;28.50;74.30;;;;;;5055376;28;20758;-54
2021/10/31 11:43:22;;;;;;;2.80;1.70;;;29.10;69.70;;;;;;5054693;28;20500;-54
2021/10/31 11:45:50;;;;;;;2.20;2.00;;;28.50;71.80;;;;;;5054831;28;20472;-55
2021/10/31 11:48:23;;;;;;;1.73;1.63;;;28.60;70.50;;;;;;5055175;28;20932;-55
2021/10/31 11:51:01;;;;;;;2.40;2.20;;;29.40;69.60;;;;;;5054801;28;20870;-51
2021/10/31 11:53:32;;;;;;;2.57;2.37;;;29.10;68.90;;;;;;5054648;28;20484;-54
2021/10/31 11:56:01;;;;;;;2.47;2.03;;;27.80;69.50;;;;;;5053355;28;20460;-54
2021/10/31 11:58:37;;;;;;;2.37;2.17;;;26.60;74.80;;;;;;5054369;28;20500;-57
2021/10/31 12:01:13;;;;;;;1.67;1.57;;;26.70;73.90;;;;;;5054504;28;20910;-53
2021/10/31 12:03:42;;;;;;;2.53;2.33;;;26.30;73.70;;;;;;5054601;28;20385;-54
2021/10/31 12:06:14;;;;;;;2.50;2.20;;;25.60;76.10;;;;;;5053251;28;20428;-53
2021/10/31 12:08:47;;;;;;;2.30;2.03;;;25.40;76.20;;;;;;5054582;28;20488;-56
2021/10/31 12:11:13;;;;;;;2.27;2.07;;;26.10;75.50;;;;;;5054512;28;20490;-54
2021/10/31 12:13:47;;;;;;;2.40;2.00;;;26.80;72.60;;;;;;5054368;28;20410;-53
2021/10/31 12:16:17;;;;;;;2.27;2.03;;;27.10;73.00;;;;;;5054383;28;20393;-57
2021/10/31 12:18:42;;;;;;;3.10;2.03;;;27.80;72.90;;;;;;5052306;28;20516;-55
2021/10/31 12:21:25;;;;;;;2.57;2.20;;;28.00;70.20;;;;;;5054079;28;20544;-52
2021/10/31 12:24:06;;;;;;;2.17;2.00;;;28.10;69.80;;;;;;5054172;28;20179;-57
2021/10/31 12:26:54;;;;;;;2.70;1.80;;;28.00;70.70;;;;;;5054196;28;20389;-58
2021/10/31 12:29:28;;;;;;;2.40;1.97;;;28.50;68.40;;;;;;5054120;28;20480;-54
2021/10/31 12:31:56;;;;;;;2.03;1.83;;;28.80;67.70;;;;;;5054322;28;20401;-54
2021/10/31 12:34:27;;;;;;;1.73;1.63;;;29.20;66.90;;;;;;5054230;28;20421;-51
2021/10/31 12:36:55;;;;;;;2.70;1.77;;;30.50;66.20;;;;;;5054271;28;20397;-55
2021/10/31 12:39:27;;;;;;;2.43;2.23;;;31.60;61.50;;;;;;5053912;28;20420;-57
2021/10/31 12:42:21;;;;;;;2.40;2.20;;;31.10;61.30;;;;;;5053842;28;20527;-54
2021/10/31 12:44:48;;;;;;;2.17;1.97;;;30.40;60.40;;;;;;5047712;28;21047;-58
2021/10/31 12:47:19;;;;;;;1.73;1.63;;;30.50;61.80;;;;;;5053587;28;20782;-52
2021/10/31 12:49:46;;;;;;;2.10;1.90;;;31.70;59.60;;;;;;5054327;28;20481;-55
2021/10/31 12:52:27;;;;;;;2.37;2.17;;;30.90;59.10;;;;;;5053909;28;20490;-52
2021/10/31 12:54:57;;;;;;;2.20;2.07;;;30.90;60.00;;;;;;5053855;28;20421;-53
2021/10/31 12:57:24;;;;;;;2.43;2.23;;;30.20;60.00;;;;;;5070285;22;20448;-56
2021/10/31 12:59:52;;;;;;;2.70;2.50;;;28.50;63.00;;;;;;5042194;28;20429;-58